Time;durP1;ratioP1;P1;durP2;ratioP2;P2;SDS_P1;SDS_P2;PMS_P1;PMS_P2;Temp;Humidity;BMP_temperature;BMP_pressure;BME280_temperature;BME280_humidity;BME280_pressure;Samples;Min_cycle;Max_cycle;Signal;HPM_P1;HPM_P2
2022/07/03 00:00:38;;;;;;;2.28;2.08;;;19.70;99.90;;;;;;5053509;28;20033;-74
2022/07/03 00:03:03;;;;;;;2.42;2.00;;;19.60;99.90;;;;;;5064909;28;20063;-75
2022/07/03 00:05:29;;;;;;;2.33;2.10;;;19.50;99.90;;;;;;5047853;28;20055;-76
2022/07/03 00:07:55;;;;;;;2.55;1.90;;;19.60;99.90;;;;;;5060129;28;20025;-76
2022/07/03 00:10:20;;;;;;;2.42;2.20;;;19.50;99.90;;;;;;5040780;28;20048;-76
2022/07/03 00:12:46;;;;;;;2.75;2.05;;;19.40;99.90;;;;;;5065591;28;20352;-76
2022/07/03 00:15:12;;;;;;;2.95;2.10;;;19.30;99.90;;;;;;5066106;28;20033;-76
2022/07/03 00:17:37;;;;;;;3.70;1.90;;;19.20;99.90;;;;;;5059608;28;20056;-76
2022/07/03 00:20:03;;;;;;;2.67;1.88;;;18.80;99.90;;;;;;5054688;28;20025;-75
2022/07/03 00:22:32;;;;;;;2.00;1.80;;;18.50;99.90;;;;;;5065081;28;20040;-74
2022/07/03 00:25:06;;;;;;;2.20;2.00;;;18.20;99.90;;;;;;5065706;28;20368;-74
2022/07/03 00:27:33;;;;;;;3.30;2.10;;;17.90;99.90;;;;;;5043037;28;20060;-74
2022/07/03 00:30:01;;;;;;;3.08;2.00;;;17.80;99.90;;;;;;5059146;28;20017;-74
2022/07/03 00:32:28;;;;;;;3.88;2.20;;;17.80;99.90;;;;;;5062762;28;20103;-74
2022/07/03 00:34:55;;;;;;;2.17;1.95;;;17.60;99.90;;;;;;5047978;28;20093;-76
2022/07/03 00:37:22;;;;;;;2.55;2.30;;;17.60;99.90;;;;;;5040201;28;20021;-74
2022/07/03 00:39:48;;;;;;;2.42;2.20;;;17.60;99.90;;;;;;5052132;28;20029;-73
2022/07/03 00:42:15;;;;;;;2.58;2.10;;;17.60;99.90;;;;;;5051833;28;20029;-74
2022/07/03 00:44:45;;;;;;;3.13;2.28;;;17.50;99.90;;;;;;5065484;28;20111;-74
2022/07/03 00:47:12;;;;;;;3.80;2.42;;;17.40;99.90;;;;;;5062227;28;20024;-75
2022/07/03 00:49:39;;;;;;;2.97;2.30;;;17.40;99.90;;;;;;5058727;28;20012;-75
2022/07/03 00:52:05;;;;;;;3.13;2.63;;;17.50;99.90;;;;;;5060861;28;20043;-76
2022/07/03 00:54:34;;;;;;;2.15;1.95;;;17.40;99.90;;;;;;5065568;28;20041;-75
2022/07/03 00:57:02;;;;;;;2.97;2.03;;;17.40;99.90;;;;;;5044976;28;20066;-74
2022/07/03 00:59:28;;;;;;;3.83;2.30;;;17.30;99.90;;;;;;5058207;28;20482;-74
2022/07/03 01:02:03;;;;;;;5.43;2.17;;;17.30;99.90;;;;;;5071241;28;20056;-74
2022/07/03 01:05:02;;;;;;;3.45;2.20;;;17.20;99.90;;;;;;5052643;28;20013;-74
2022/07/03 01:07:35;;;;;;;2.42;2.22;;;17.20;99.90;;;;;;5051593;28;20086;-73
2022/07/03 01:10:16;;;;;;;2.60;2.40;;;17.10;99.90;;;;;;5062999;28;20028;-74
2022/07/03 01:12:56;;;;;;;3.22;2.45;;;17.10;99.90;;;;;;5051781;28;20023;-73
2022/07/03 01:15:52;;;;;;;2.40;2.20;;;17.10;99.90;;;;;;5027132;28;20033;-73
2022/07/03 01:18:17;;;;;;;2.53;2.33;;;17.00;99.90;;;;;;5058149;28;20072;-73
2022/07/03 01:20:47;;;;;;;2.70;2.50;;;16.80;99.90;;;;;;5070086;28;20109;-73
2022/07/03 01:23:30;;;;;;;3.35;2.33;;;16.80;99.90;;;;;;5058151;28;20033;-74
2022/07/03 01:25:57;;;;;;;4.15;2.40;;;16.80;99.90;;;;;;5060252;28;20036;-74
2022/07/03 01:28:24;;;;;;;2.60;2.40;;;16.90;99.90;;;;;;5057965;28;20032;-75
2022/07/03 01:30:54;;;;;;;2.70;2.30;;;16.90;99.90;;;;;;5070974;28;20021;-75
2022/07/03 01:33:21;;;;;;;2.85;2.42;;;16.70;99.90;;;;;;5071424;28;20025;-75
2022/07/03 01:36:05;;;;;;;2.70;2.47;;;16.70;99.90;;;;;;5043729;28;20029;-74
2022/07/03 01:38:40;;;;;;;3.75;2.30;;;16.50;99.90;;;;;;5051382;28;20139;-73
2022/07/03 01:41:08;;;;;;;2.35;2.15;;;16.70;99.90;;;;;;5050829;28;20442;-73
2022/07/03 01:43:41;;;;;;;2.58;2.38;;;16.30;99.90;;;;;;5038054;28;20029;-73
2022/07/03 01:46:07;;;;;;;2.78;2.50;;;16.40;99.90;;;;;;5051272;28;20021;-73
2022/07/03 01:48:34;;;;;;;3.05;2.50;;;16.50;99.90;;;;;;5059032;28;20031;-73
2022/07/03 01:51:01;;;;;;;3.30;2.83;;;16.30;99.90;;;;;;5052701;28;20032;-74
2022/07/03 01:53:28;;;;;;;3.75;2.60;;;16.40;99.90;;;;;;5052804;28;20028;-74
2022/07/03 01:55:59;;;;;;;3.15;2.85;;;16.30;99.90;;;;;;5038459;28;20029;-74
2022/07/03 01:58:25;;;;;;;3.97;2.70;;;16.40;99.90;;;;;;5041989;28;20048;-74
2022/07/03 02:01:04;;;;;;;3.10;2.58;;;16.30;99.90;;;;;;5055431;28;20379;-74
2022/07/03 02:03:33;;;;;;;3.67;2.78;;;16.20;99.90;;;;;;5051077;28;20044;-74
2022/07/03 02:06:10;;;;;;;2.85;2.60;;;16.30;99.90;;;;;;5050815;28;20021;-74
2022/07/03 02:08:55;;;;;;;3.17;2.53;;;16.30;99.90;;;;;;5051072;28;20032;-74
2022/07/03 02:11:22;;;;;;;2.60;2.40;;;16.30;99.90;;;;;;5059625;28;20066;-74
2022/07/03 02:14:17;;;;;;;2.67;2.47;;;16.20;99.90;;;;;;5068360;28;20086;-74
2022/07/03 02:17:04;;;;;;;3.42;2.70;;;16.10;99.90;;;;;;5051071;28;20021;-74
2022/07/03 02:19:43;;;;;;;3.95;2.80;;;16.00;99.90;;;;;;5071122;28;20021;-74
2022/07/03 02:22:11;;;;;;;2.92;2.50;;;15.90;99.90;;;;;;5057069;28;20024;-74
2022/07/03 02:24:47;;;;;;;3.10;2.80;;;15.90;99.90;;;;;;5071334;28;20028;-74
2022/07/03 02:27:22;;;;;;;2.90;2.70;;;15.90;99.90;;;;;;5044938;28;20017;-74
2022/07/03 02:30:01;;;;;;;2.70;2.50;;;15.90;99.90;;;;;;5058548;28;20020;-73
2022/07/03 02:32:30;;;;;;;3.22;2.67;;;15.80;99.90;;;;;;5054075;28;20376;-73
2022/07/03 02:35:01;;;;;;;3.03;2.72;;;15.70;99.90;;;;;;5067663;28;20117;-73
2022/07/03 02:37:31;;;;;;;3.95;2.80;;;15.60;99.90;;;;;;5065547;28;20024;-73
2022/07/03 02:40:26;;;;;;;2.40;2.20;;;15.70;99.90;;;;;;5075014;28;20052;-75
2022/07/03 02:43:12;;;;;;;3.17;2.60;;;15.80;99.90;;;;;;5060880;28;20092;-74
2022/07/03 02:45:55;;;;;;;4.43;2.70;;;15.80;99.90;;;;;;5051611;28;20094;-73
2022/07/03 02:48:40;;;;;;;2.78;2.58;;;15.80;99.90;;;;;;5041459;28;20395;-73
2022/07/03 02:51:13;;;;;;;3.00;2.63;;;15.80;99.90;;;;;;5056885;28;20101;-74
2022/07/03 02:53:44;;;;;;;4.88;2.60;;;15.70;99.90;;;;;;5064074;28;20021;-73
2022/07/03 02:56:27;;;;;;;3.65;2.83;;;15.70;99.90;;;;;;5072418;28;20056;-75
2022/07/03 02:59:16;;;;;;;3.05;2.80;;;15.90;99.90;;;;;;5060694;28;20497;-76
2022/07/03 03:01:48;;;;;;;3.03;2.78;;;15.70;99.90;;;;;;5063548;28;20487;-74
2022/07/03 03:04:16;;;;;;;3.20;2.60;;;15.50;99.90;;;;;;5045469;28;20130;-74
2022/07/03 03:06:53;;;;;;;3.47;3.08;;;15.50;99.90;;;;;;5055610;28;20024;-74
2022/07/03 03:09:25;;;;;;;3.45;2.50;;;15.50;99.90;;;;;;5060474;28;20483;-74
2022/07/03 03:11:52;;;;;;;3.28;2.97;;;15.40;99.90;;;;;;5042819;28;20112;-73
2022/07/03 03:14:24;;;;;;;4.68;3.13;;;15.50;99.90;;;;;;5067248;28;20029;-74
2022/07/03 03:16:54;;;;;;;3.20;2.88;;;15.40;99.90;;;;;;5067224;28;20025;-75
2022/07/03 03:19:23;;;;;;;3.10;2.90;;;15.40;99.90;;;;;;5061483;28;20433;-75
2022/07/03 03:22:15;;;;;;;3.42;2.67;;;15.30;99.90;;;;;;5059609;28;20028;-75
2022/07/03 03:24:40;;;;;;;3.25;2.90;;;15.40;99.90;;;;;;5062026;28;20021;-75
2022/07/03 03:27:07;;;;;;;3.00;2.70;;;15.30;99.90;;;;;;5066895;28;20100;-75
2022/07/03 03:29:33;;;;;;;4.25;3.53;;;15.40;99.90;;;;;;5053559;28;20053;-75
2022/07/03 03:31:58;;;;;;;3.08;2.83;;;15.30;99.90;;;;;;5052939;28;20514;-75
2022/07/03 03:34:26;;;;;;;4.13;3.40;;;15.20;99.90;;;;;;5053302;28;20036;-76
2022/07/03 03:36:51;;;;;;;3.65;2.92;;;14.90;99.90;;;;;;5066822;28;20061;-76
2022/07/03 03:39:17;;;;;;;3.58;2.83;;;15.00;99.90;;;;;;5065030;28;20299;-75
2022/07/03 03:41:42;;;;;;;3.60;3.30;;;14.80;99.90;;;;;;5053526;28;20075;-76
2022/07/03 03:44:08;;;;;;;3.20;2.90;;;14.90;99.90;;;;;;5047016;28;20071;-75
2022/07/03 03:46:33;;;;;;;3.40;3.10;;;15.00;99.90;;;;;;5041909;28;20020;-74
2022/07/03 03:48:59;;;;;;;4.60;3.20;;;14.80;99.90;;;;;;5061611;28;20037;-74
2022/07/03 03:51:24;;;;;;;3.35;3.05;;;14.90;99.90;;;;;;5065896;28;20048;-73
2022/07/03 03:53:50;;;;;;;3.20;2.90;;;14.90;99.90;;;;;;5052981;28;20740;-74
2022/07/03 03:56:16;;;;;;;3.88;2.88;;;15.10;99.90;;;;;;5041828;28;20028;-74
2022/07/03 03:58:43;;;;;;;3.20;2.92;;;15.10;99.90;;;;;;5061413;28;20058;-73
2022/07/03 04:01:10;;;;;;;3.25;2.95;;;15.20;99.90;;;;;;5057312;28;20086;-73
2022/07/03 04:03:36;;;;;;;4.40;3.22;;;15.20;99.90;;;;;;5060824;28;20353;-73
2022/07/03 04:06:03;;;;;;;3.10;2.80;;;15.30;99.90;;;;;;5039213;28;20494;-73
2022/07/03 04:08:29;;;;;;;3.47;3.20;;;15.30;99.90;;;;;;5034964;28;20498;-74
2022/07/03 04:10:55;;;;;;;3.40;3.20;;;15.30;99.90;;;;;;5053031;28;20059;-74
2022/07/03 04:13:21;;;;;;;4.22;3.00;;;15.20;99.90;;;;;;5060553;28;20391;-76
2022/07/03 04:15:48;;;;;;;3.50;3.20;;;15.30;99.90;;;;;;5065976;28;20025;-76
2022/07/03 04:18:13;;;;;;;3.35;2.95;;;15.40;99.90;;;;;;5065045;28;20111;-75
2022/07/03 04:20:39;;;;;;;3.30;3.00;;;15.50;99.90;;;;;;5058765;28;20104;-75
2022/07/03 04:23:05;;;;;;;3.58;2.83;;;15.50;99.90;;;;;;5059916;28;20029;-75
2022/07/03 04:25:30;;;;;;;4.25;3.08;;;15.50;99.90;;;;;;5065612;28;20399;-73
2022/07/03 04:27:56;;;;;;;3.10;2.80;;;15.70;99.90;;;;;;5047206;28;20078;-73
2022/07/03 04:30:22;;;;;;;3.72;2.88;;;15.90;99.90;;;;;;5051920;28;20100;-73
2022/07/03 04:32:48;;;;;;;3.60;2.60;;;16.10;99.90;;;;;;5052196;28;20021;-73
2022/07/03 04:35:14;;;;;;;3.35;2.97;;;16.20;99.90;;;;;;5052385;28;20032;-73
2022/07/03 04:37:40;;;;;;;3.55;2.83;;;16.30;99.90;;;;;;5065395;28;20028;-74
2022/07/03 04:40:07;;;;;;;4.22;3.22;;;16.70;99.90;;;;;;5058755;28;20108;-75
2022/07/03 04:42:32;;;;;;;3.33;3.03;;;16.70;99.90;;;;;;5059005;28;20483;-74
2022/07/03 04:44:58;;;;;;;3.90;3.47;;;16.90;99.90;;;;;;5065444;28;20036;-75
2022/07/03 04:47:23;;;;;;;3.42;3.10;;;16.90;99.90;;;;;;5046957;28;20088;-74
2022/07/03 04:49:49;;;;;;;8.13;3.00;;;17.10;99.90;;;;;;5066018;28;20422;-74
2022/07/03 04:52:14;;;;;;;3.22;2.90;;;16.90;99.90;;;;;;5063920;28;20021;-74
2022/07/03 04:54:40;;;;;;;3.15;2.88;;;17.10;99.90;;;;;;5065885;28;20051;-73
2022/07/03 04:57:06;;;;;;;4.75;3.42;;;16.70;99.90;;;;;;5064725;28;20025;-73
2022/07/03 04:59:31;;;;;;;4.88;3.45;;;16.50;99.90;;;;;;5058297;28;20044;-74
2022/07/03 05:01:57;;;;;;;3.85;3.47;;;16.80;99.90;;;;;;5058718;28;20025;-74
2022/07/03 05:04:23;;;;;;;4.03;3.70;;;16.80;99.90;;;;;;5046577;28;20044;-73
2022/07/03 05:06:49;;;;;;;6.00;3.50;;;16.90;99.90;;;;;;5055400;28;20405;-73
2022/07/03 05:09:14;;;;;;;4.13;3.20;;;16.90;99.90;;;;;;5053223;28;20056;-74
2022/07/03 05:11:41;;;;;;;3.50;3.20;;;17.00;99.90;;;;;;5027083;28;20025;-73
2022/07/03 05:14:07;;;;;;;9.38;3.65;;;16.90;99.90;;;;;;5032188;28;20550;-73
2022/07/03 05:16:32;;;;;;;4.50;4.00;;;17.20;99.90;;;;;;5051614;28;20029;-75
2022/07/03 05:18:58;;;;;;;8.88;3.53;;;17.10;99.90;;;;;;5051484;28;20433;-74
2022/07/03 05:21:24;;;;;;;10.27;3.80;;;17.20;99.90;;;;;;5050965;28;20052;-74
2022/07/03 05:23:49;;;;;;;12.38;3.95;;;17.50;99.90;;;;;;5051306;28;20056;-74
2022/07/03 05:26:15;;;;;;;9.52;4.05;;;17.60;99.90;;;;;;5052303;28;20555;-75
2022/07/03 05:28:42;;;;;;;8.52;4.10;;;17.80;99.90;;;;;;5035743;28;20047;-77
2022/07/03 05:31:07;;;;;;;5.43;3.13;;;18.00;99.90;;;;;;5051644;28;20032;-75
2022/07/03 05:33:33;;;;;;;7.85;3.22;;;18.10;99.90;;;;;;5051211;28;20154;-74
2022/07/03 05:35:59;;;;;;;4.78;3.05;;;18.30;99.90;;;;;;5051405;28;20029;-74
2022/07/03 05:41:10;;;;;;;3.00;2.70;;;18.70;99.90;;;;;;5051109;28;20525;-74
2022/07/03 05:43:36;;;;;;;3.05;2.70;;;19.00;99.90;;;;;;5051194;28;20033;-74
2022/07/03 05:46:02;;;;;;;3.45;2.88;;;19.20;99.90;;;;;;5051220;28;20025;-74
2022/07/03 05:48:28;;;;;;;4.03;2.80;;;19.40;99.90;;;;;;5051388;28;20025;-74
2022/07/03 05:50:54;;;;;;;4.07;3.03;;;19.70;99.90;;;;;;5050671;28;20017;-74
2022/07/03 05:53:19;;;;;;;5.03;3.10;;;20.10;99.90;;;;;;5051153;28;20589;-74
2022/07/03 05:55:45;;;;;;;3.22;2.88;;;20.20;99.90;;;;;;5051204;28;20036;-74
2022/07/03 05:58:10;;;;;;;3.67;2.67;;;20.40;99.90;;;;;;5051215;28;20427;-74
2022/07/03 06:00:36;;;;;;;4.47;3.10;;;20.50;99.90;;;;;;5050469;28;20039;-74
2022/07/03 06:03:02;;;;;;;3.30;3.00;;;20.40;99.90;;;;;;5050969;28;20071;-74
2022/07/03 06:05:28;;;;;;;3.60;3.30;;;20.20;99.90;;;;;;5054571;28;20025;-73
2022/07/03 06:07:54;;;;;;;3.13;2.80;;;20.50;99.90;;;;;;5055009;28;20021;-74
2022/07/03 06:10:20;;;;;;;2.97;2.78;;;20.40;99.90;;;;;;5054324;28;20025;-74
2022/07/03 06:12:46;;;;;;;4.00;3.00;;;20.10;99.90;;;;;;5062516;28;20054;-71
2022/07/03 06:15:11;;;;;;;3.25;3.00;;;20.40;99.90;;;;;;5074766;28;20505;-71
2022/07/03 06:17:37;;;;;;;3.90;2.92;;;20.50;99.90;;;;;;5074764;28;20031;-71
2022/07/03 06:20:04;;;;;;;3.63;2.95;;;20.40;99.90;;;;;;5074555;28;20033;-71
2022/07/03 06:22:30;;;;;;;5.07;2.70;;;20.70;99.90;;;;;;5074015;28;20029;-71
2022/07/03 06:24:55;;;;;;;4.45;3.13;;;20.80;99.90;;;;;;5074580;28;20484;-71
2022/07/03 06:27:21;;;;;;;4.32;3.10;;;20.90;99.90;;;;;;5074732;28;20016;-71
2022/07/03 06:29:49;;;;;;;4.10;3.22;;;20.80;99.90;;;;;;5074553;28;20107;-71
2022/07/03 06:32:15;;;;;;;4.50;3.10;;;20.90;99.90;;;;;;5073977;28;20021;-71
2022/07/03 06:34:42;;;;;;;3.10;2.80;;;21.00;99.90;;;;;;5074174;28;20051;-71
2022/07/03 06:37:08;;;;;;;3.15;2.72;;;20.80;99.90;;;;;;5074456;28;20031;-71
2022/07/03 06:39:34;;;;;;;3.33;3.03;;;20.90;99.90;;;;;;5074513;28;20028;-71
2022/07/03 06:42:00;;;;;;;3.22;2.92;;;21.10;99.90;;;;;;5073747;28;20028;-71
2022/07/03 06:44:25;;;;;;;3.08;2.78;;;21.20;99.90;;;;;;5074047;28;20403;-71
2022/07/03 06:46:51;;;;;;;3.47;2.50;;;21.20;99.90;;;;;;5056298;28;20134;-71
2022/07/03 06:49:17;;;;;;;4.55;2.70;;;21.30;99.90;;;;;;5074118;28;20029;-71
2022/07/03 06:51:42;;;;;;;3.90;2.70;;;21.40;99.90;;;;;;5073486;28;20057;-71
2022/07/03 06:54:08;;;;;;;3.17;2.55;;;21.60;99.90;;;;;;5073711;28;20035;-71
2022/07/03 06:56:33;;;;;;;4.13;3.10;;;21.50;99.90;;;;;;5074124;28;20028;-71
2022/07/03 06:58:59;;;;;;;3.83;2.70;;;21.80;99.90;;;;;;5074005;28;20024;-71
2022/07/03 07:01:25;;;;;;;3.22;2.88;;;21.80;99.90;;;;;;5069608;28;20025;-71
2022/07/03 07:03:51;;;;;;;2.50;2.30;;;21.80;99.90;;;;;;5067000;28;20040;-71
2022/07/03 07:06:16;;;;;;;2.40;2.30;;;21.70;99.90;;;;;;5053808;28;20064;-71
2022/07/03 07:08:42;;;;;;;3.50;2.72;;;21.70;99.90;;;;;;5053878;28;20082;-71
2022/07/03 07:11:07;;;;;;;2.90;2.60;;;21.60;99.90;;;;;;5051332;28;20021;-71
2022/07/03 07:13:33;;;;;;;2.95;2.25;;;22.00;99.90;;;;;;5060629;28;20482;-71
2022/07/03 07:16:00;;;;;;;2.80;2.40;;;21.90;99.90;;;;;;5072420;28;20032;-72
2022/07/03 07:18:26;;;;;;;4.28;2.30;;;21.90;99.90;;;;;;5073575;28;20036;-71
2022/07/03 07:20:51;;;;;;;3.33;2.45;;;22.00;99.90;;;;;;5072144;28;20074;-71
2022/07/03 07:23:17;;;;;;;3.45;2.58;;;22.30;99.90;;;;;;5073110;28;20028;-71
2022/07/03 07:25:43;;;;;;;2.65;2.33;;;22.40;99.90;;;;;;5073506;28;20060;-71
2022/07/03 07:28:08;;;;;;;2.55;2.22;;;22.40;99.90;;;;;;5071996;28;20524;-71
2022/07/03 07:30:34;;;;;;;4.68;2.50;;;22.20;99.90;;;;;;5072813;28;20039;-71
2022/07/03 07:32:59;;;;;;;2.80;2.40;;;22.30;99.90;;;;;;5073251;28;20487;-72
2022/07/03 07:35:25;;;;;;;4.43;2.55;;;22.60;99.90;;;;;;5073208;28;20541;-72
2022/07/03 07:37:50;;;;;;;2.53;2.10;;;22.80;99.90;;;;;;5060393;28;20036;-72
2022/07/03 07:40:16;;;;;;;2.72;2.30;;;22.40;99.90;;;;;;5052546;28;20063;-72
2022/07/03 07:42:42;;;;;;;2.75;2.40;;;22.70;99.90;;;;;;5053199;28;20382;-72
2022/07/03 07:45:09;;;;;;;2.72;2.38;;;22.70;99.90;;;;;;5053050;28;20029;-71
2022/07/03 07:47:34;;;;;;;4.45;2.53;;;22.80;99.90;;;;;;5053117;28;20104;-72
2022/07/03 07:50:00;;;;;;;3.88;2.40;;;23.10;99.90;;;;;;5053276;28;20063;-71
2022/07/03 07:52:26;;;;;;;3.40;2.17;;;23.00;99.90;;;;;;5052412;28;20041;-71
2022/07/03 07:54:51;;;;;;;2.13;1.95;;;23.10;99.90;;;;;;5053046;28;20444;-71
2022/07/03 07:57:17;;;;;;;4.78;2.33;;;23.40;99.90;;;;;;5052934;28;20021;-71
2022/07/03 07:59:42;;;;;;;2.72;2.20;;;23.40;99.90;;;;;;5052844;28;20029;-72
2022/07/03 08:07:36;;;;;;;4.47;2.53;;;23.20;99.90;;;;;;5052776;28;20039;-71
2022/07/03 08:10:02;;;;;;;2.72;2.10;;;23.00;99.90;;;;;;5052716;28;20020;-71
2022/07/03 08:12:28;;;;;;;3.00;2.22;;;23.20;99.90;;;;;;5048520;28;20405;-71
2022/07/03 08:14:53;;;;;;;3.05;2.30;;;23.70;99.90;;;;;;5072514;28;20058;-71
2022/07/03 08:17:19;;;;;;;4.38;2.40;;;23.80;99.90;;;;;;5072491;28;20444;-72
2022/07/03 08:19:44;;;;;;;2.55;2.35;;;23.80;99.90;;;;;;5072598;28;20405;-72
2022/07/03 08:22:10;;;;;;;3.55;2.10;;;23.60;99.90;;;;;;5071743;28;20029;-71
2022/07/03 08:24:37;;;;;;;2.00;1.80;;;23.50;99.90;;;;;;5072266;28;20039;-72
2022/07/03 08:27:03;;;;;;;2.58;2.00;;;23.80;99.90;;;;;;5071886;28;20059;-72
2022/07/03 08:29:29;;;;;;;2.17;2.00;;;23.90;99.90;;;;;;5072226;28;20021;-72
2022/07/03 08:31:55;;;;;;;3.20;2.13;;;23.60;99.90;;;;;;5071592;28;20030;-72
2022/07/03 08:34:20;;;;;;;2.38;2.15;;;23.70;99.90;;;;;;5072150;28;20036;-71
2022/07/03 08:36:47;;;;;;;3.47;2.10;;;24.10;99.90;;;;;;5072128;28;20055;-72
2022/07/03 08:39:12;;;;;;;2.03;1.90;;;24.20;99.90;;;;;;5072182;28;20025;-71
2022/07/03 08:41:40;;;;;;;2.90;2.33;;;24.20;99.90;;;;;;5071301;28;20040;-71
2022/07/03 08:44:08;;;;;;;4.18;2.10;;;24.10;99.90;;;;;;5072057;28;20701;-71
2022/07/03 08:46:34;;;;;;;2.28;2.10;;;24.50;99.90;;;;;;5072255;28;20437;-71
2022/07/03 08:49:02;;;;;;;3.10;2.10;;;24.60;99.90;;;;;;5072236;28;20028;-72
2022/07/03 08:51:28;;;;;;;2.85;1.92;;;24.50;99.90;;;;;;5071225;28;20028;-71
2022/07/03 08:53:54;;;;;;;2.53;2.00;;;24.70;99.90;;;;;;5072303;28;20061;-71
2022/07/03 08:56:21;;;;;;;2.22;1.88;;;24.90;99.90;;;;;;5071664;28;20511;-71
2022/07/03 08:58:47;;;;;;;1.92;1.73;;;25.40;99.90;;;;;;5071677;28;20020;-71
2022/07/03 09:01:17;;;;;;;2.08;1.88;;;25.40;99.90;;;;;;5071148;28;20032;-71
2022/07/03 09:03:44;;;;;;;3.15;1.83;;;24.70;99.90;;;;;;5071671;28;20033;-71
2022/07/03 09:06:11;;;;;;;2.10;1.70;;;24.90;99.90;;;;;;5051884;28;20021;-72
2022/07/03 09:08:38;;;;;;;3.72;1.98;;;25.00;99.90;;;;;;5051705;28;20036;-71
2022/07/03 09:11:04;;;;;;;3.83;2.15;;;24.90;99.90;;;;;;5049613;28;20045;-71
2022/07/03 09:13:29;;;;;;;4.30;2.10;;;25.10;99.90;;;;;;5044778;28;20048;-71
2022/07/03 09:15:55;;;;;;;2.97;2.00;;;25.10;99.90;;;;;;5051578;28;20479;-71
2022/07/03 09:18:41;;;;;;;1.90;1.80;;;25.20;99.90;;;;;;5051581;28;20033;-72
2022/07/03 09:21:08;;;;;;;1.67;1.58;;;25.10;99.90;;;;;;5050864;28;20033;-71
2022/07/03 09:23:43;;;;;;;3.22;1.80;;;25.40;99.90;;;;;;5051371;28;20581;-72
2022/07/03 09:26:16;;;;;;;3.15;1.80;;;25.70;99.90;;;;;;5051430;28;20483;-71
2022/07/03 09:28:53;;;;;;;3.85;1.80;;;25.70;99.90;;;;;;5051422;28;20029;-71
2022/07/03 09:31:26;;;;;;;2.00;1.90;;;25.60;99.90;;;;;;5050883;28;20055;-71
2022/07/03 09:34:03;;;;;;;2.70;1.88;;;25.50;99.90;;;;;;5051130;28;20051;-72
2022/07/03 09:36:50;;;;;;;2.72;1.85;;;25.80;99.90;;;;;;5051226;28;20048;-72
2022/07/03 09:39:30;;;;;;;3.13;2.20;;;26.10;99.90;;;;;;5053097;28;20079;-72
2022/07/03 09:42:01;;;;;;;1.90;1.70;;;26.30;99.90;;;;;;5054873;28;20033;-72
2022/07/03 09:44:37;;;;;;;4.57;1.70;;;26.30;99.90;;;;;;5055262;28;20071;-72
2022/07/03 09:47:18;;;;;;;1.60;1.50;;;26.00;99.90;;;;;;5055516;28;20064;-72
2022/07/03 09:49:56;;;;;;;1.67;1.58;;;26.30;99.90;;;;;;5055284;28;20491;-72
2022/07/03 09:52:38;;;;;;;2.63;1.67;;;26.20;99.90;;;;;;5054675;28;20017;-72
2022/07/03 09:55:10;;;;;;;1.83;1.58;;;26.50;99.90;;;;;;5055245;28;20555;-72
2022/07/03 09:57:43;;;;;;;2.60;1.60;;;26.80;99.90;;;;;;5055220;28;20104;-72
2022/07/03 10:00:24;;;;;;;3.75;1.92;;;26.60;99.90;;;;;;5055092;28;20027;-72
2022/07/03 10:03:00;;;;;;;1.58;1.35;;;26.60;99.90;;;;;;5055010;28;20499;-71
2022/07/03 10:05:31;;;;;;;3.53;1.67;;;26.60;99.90;;;;;;5054953;28;20029;-72
2022/07/03 10:08:05;;;;;;;1.70;1.52;;;26.50;99.90;;;;;;5055120;28;20609;-72
2022/07/03 10:10:36;;;;;;;1.75;1.65;;;26.60;99.90;;;;;;5054397;28;20032;-72
2022/07/03 10:13:02;;;;;;;2.90;2.60;;;26.60;99.90;;;;;;5055789;28;20024;-72
2022/07/03 10:15:30;;;;;;;2.35;1.58;;;27.00;99.90;;;;;;5074748;28;20031;-72
2022/07/03 10:17:57;;;;;;;3.08;2.75;;;27.10;99.90;;;;;;5074828;28;20390;-72
2022/07/03 10:20:29;;;;;;;2.33;1.60;;;26.70;99.90;;;;;;5074111;28;20033;-72
2022/07/03 10:22:55;;;;;;;1.73;1.40;;;26.90;99.90;;;;;;5074692;28;20027;-72
2022/07/03 10:25:21;;;;;;;1.83;1.40;;;26.80;99.90;;;;;;5074565;28;20032;-72
2022/07/03 10:27:48;;;;;;;4.55;1.63;;;26.60;99.90;;;;;;5074603;28;20539;-72
2022/07/03 10:30:23;;;;;;;5.25;3.85;;;26.50;99.90;;;;;;5074012;28;20028;-72
2022/07/03 10:32:52;;;;;;;1.90;1.80;;;26.30;99.90;;;;;;5074477;28;20021;-72
2022/07/03 10:35:25;;;;;;;1.60;1.50;;;26.70;99.90;;;;;;5074519;28;20044;-72
2022/07/03 10:38:02;;;;;;;2.42;1.50;;;26.40;99.90;;;;;;5074482;28;20024;-72
2022/07/03 10:46:32;;;;;;;2.35;1.20;;;27.80;99.90;;;;;;5074220;28;20056;-72
2022/07/03 10:49:05;;;;;;;3.17;1.95;;;27.50;99.90;;;;;;5074165;28;20099;-72
2022/07/03 10:51:52;;;;;;;1.42;1.30;;;27.70;99.90;;;;;;5073298;28;20020;-72
2022/07/03 10:54:25;;;;;;;2.67;1.50;;;27.60;99.90;;;;;;5073642;28;20079;-72
2022/07/03 10:57:02;;;;;;;1.48;1.38;;;27.80;99.90;;;;;;5074211;28;20024;-72
2022/07/03 10:59:37;;;;;;;3.60;1.50;;;27.30;99.90;;;;;;5074020;28;20047;-72
2022/07/03 11:02:26;;;;;;;2.80;1.48;;;27.70;99.90;;;;;;5073430;28;20025;-72
2022/07/03 11:05:01;;;;;;;1.92;1.10;;;28.20;99.20;;;;;;5064772;28;20024;-72
2022/07/03 11:07:38;;;;;;;1.40;1.30;;;27.80;98.50;;;;;;5053856;28;20071;-72
2022/07/03 11:10:12;;;;;;;1.45;1.20;;;28.00;99.80;;;;;;5053898;28;20029;-72
2022/07/03 11:12:56;;;;;;;1.45;1.23;;;28.70;99.80;;;;;;5050325;28;20049;-72
2022/07/03 11:15:41;;;;;;;1.20;1.10;;;28.20;97.60;;;;;;5073866;28;20025;-72
2022/07/03 11:18:26;;;;;;;1.10;1.00;;;28.20;97.40;;;;;;5073807;28;20053;-72
2022/07/03 11:20:52;;;;;;;2.47;1.00;;;28.70;97.50;;;;;;5073031;28;20262;-72
2022/07/03 11:23:27;;;;;;;1.65;1.20;;;28.70;96.60;;;;;;5055538;28;20032;-72
2022/07/03 11:25:54;;;;;;;1.40;1.30;;;28.90;96.60;;;;;;5073538;28;20028;-72
2022/07/03 11:28:32;;;;;;;1.33;1.10;;;29.00;97.00;;;;;;5073184;28;20027;-72
2022/07/03 11:33:54;;;;;;;1.25;1.15;;;28.80;95.30;;;;;;5053182;28;20033;-72
2022/07/03 11:36:28;;;;;;;1.90;1.20;;;29.10;95.20;;;;;;5053311;28;20387;-72
2022/07/03 11:39:05;;;;;;;3.38;1.00;;;29.00;96.60;;;;;;5053375;28;20102;-72
2022/07/03 11:41:34;;;;;;;1.20;1.10;;;28.90;95.10;;;;;;5052870;28;20501;-72
2022/07/03 11:44:02;;;;;;;1.13;1.05;;;28.90;94.60;;;;;;5053406;28;20032;-72
2022/07/03 11:46:33;;;;;;;2.15;1.20;;;29.10;95.50;;;;;;5053141;28;20068;-72
2022/07/03 11:49:05;;;;;;;1.30;0.93;;;29.30;94.30;;;;;;5053120;28;20017;-72
2022/07/03 11:51:30;;;;;;;1.17;1.10;;;29.50;94.00;;;;;;5052380;28;20117;-72
2022/07/03 11:53:56;;;;;;;1.45;1.10;;;29.30;93.50;;;;;;5052676;28;20414;-72
2022/07/03 11:56:22;;;;;;;2.97;1.00;;;29.30;93.30;;;;;;5052924;28;20032;-72
2022/07/03 11:58:54;;;;;;;1.63;0.98;;;29.30;93.60;;;;;;5052932;28;20049;-73
2022/07/03 12:01:26;;;;;;;1.77;1.23;;;29.50;92.30;;;;;;5051469;28;20041;-72
2022/07/03 12:04:04;;;;;;;1.13;1.10;;;29.30;92.70;;;;;;5052593;28;20025;-72
2022/07/03 12:06:37;;;;;;;4.00;1.10;;;29.40;92.30;;;;;;5052753;28;20025;-73
2022/07/03 12:09:18;;;;;;;1.10;1.00;;;29.50;91.60;;;;;;5052743;28;20040;-72
2022/07/03 12:11:54;;;;;;;2.58;0.90;;;29.50;91.40;;;;;;5045490;28;20432;-72
2022/07/03 12:14:49;;;;;;;0.90;0.90;;;29.40;91.50;;;;;;5047059;28;20021;-72
2022/07/03 12:17:16;;;;;;;1.13;1.03;;;29.60;91.20;;;;;;5072674;28;20383;-72
2022/07/03 12:19:55;;;;;;;1.52;0.98;;;30.50;92.60;;;;;;5072487;28;20020;-72
2022/07/03 12:22:22;;;;;;;1.20;1.10;;;30.20;90.50;;;;;;5071831;28;20085;-72
2022/07/03 12:25:00;;;;;;;1.33;0.80;;;29.90;90.70;;;;;;5054316;28;20094;-72
2022/07/03 12:27:27;;;;;;;1.10;1.00;;;30.50;90.70;;;;;;5072476;28;20024;-73
2022/07/03 12:29:53;;;;;;;0.80;0.80;;;30.70;89.00;;;;;;5072227;28;20048;-72
2022/07/03 12:32:19;;;;;;;2.05;0.90;;;30.40;89.00;;;;;;5071623;28;20478;-72
2022/07/03 12:34:44;;;;;;;2.35;0.90;;;30.40;88.20;;;;;;5072065;28;20029;-73
2022/07/03 12:37:10;;;;;;;10.50;1.20;;;30.30;87.70;;;;;;5072101;28;20509;-73
2022/07/03 12:39:45;;;;;;;1.42;0.90;;;30.70;87.90;;;;;;5072111;28;20533;-72
2022/07/03 12:42:19;;;;;;;1.10;1.00;;;30.70;87.20;;;;;;5053599;28;20032;-72
2022/07/03 12:45:01;;;;;;;1.88;1.10;;;30.20;86.70;;;;;;5071848;28;20025;-72
2022/07/03 12:47:30;;;;;;;1.10;1.00;;;30.60;87.30;;;;;;5072054;28;20161;-72
2022/07/03 12:49:56;;;;;;;1.10;0.98;;;30.80;86.60;;;;;;5071965;28;20063;-72
2022/07/03 12:52:22;;;;;;;1.67;0.98;;;31.20;87.40;;;;;;5071217;28;20024;-72
2022/07/03 12:54:47;;;;;;;1.45;1.08;;;31.20;85.30;;;;;;5071772;28;20020;-72
2022/07/03 13:00:17;;;;;;;3.83;1.00;;;31.10;89.40;;;;;;5071767;28;20508;-72
2022/07/03 13:02:44;;;;;;;2.45;1.10;;;31.00;87.00;;;;;;5071744;28;20082;-72
2022/07/03 13:05:23;;;;;;;2.17;1.20;;;31.00;84.90;;;;;;5048660;28;20036;-72
2022/07/03 13:07:54;;;;;;;1.15;1.02;;;31.50;87.10;;;;;;5053601;28;20025;-72
2022/07/03 13:10:21;;;;;;;2.05;1.13;;;31.60;85.10;;;;;;5070968;28;20028;-72
2022/07/03 13:12:50;;;;;;;1.63;1.08;;;31.30;85.70;;;;;;5056067;28;20023;-72
2022/07/03 13:15:16;;;;;;;0.90;0.90;;;31.20;85.40;;;;;;5051630;28;20384;-72
2022/07/03 13:17:55;;;;;;;1.45;1.23;;;31.20;83.80;;;;;;5051587;28;20033;-72